Terminal Aerodrome Forecast
Issued by NWS Lake Charles, LA

Home | Current Version | Previous Version | Text Only | Print | Product List | Glossary On
Versions: 1 2 3 4 5 6 7 8 9 10 11 12 13 14
000
FTUS44 KLCH 131100
TAFARA
TAF
KARA 131129Z 1312/1412 VRB05KT P6SM SCT090 SCT250
     FM131500 18006KT P6SM VCTS SCT027CB SCT100 BKN250
     FM140000 VRB03KT P6SM SCT170=

USA.gov is the U.S. government's official web portal to all federal, state and local government web resources and services.